Latest Weather Observations for Wynyard

IDT60801

Issued at 1:11 am EST Friday 19 July 2019 (issued every 10 minutes, with the page automatically refreshed every 10 minutes)

About weather observations | Map of weather stations | Latest weather observations for TAS | Other Formats
Station Details ID: 091107 Name: WYNYARD AIRPORT Lat: -41.00 Lon: 145.73 Height: 12.0 m
Data from the previous 72 hours. | See also: Recent months at Wynyard
Date/Time
EST
Temp
°C
App
Temp
°C
Dew
Point
°C
Rel
Hum
%
Delta-T
°C
Wind Press
QNH
hPa
Press
MSL
hPa
Rain since
9am
mm
Dir  Spd
km/h
Gust
km/h
Spd
kts
Gust
kts
19/01:00am 7.4 3.0 4.5 82 1.3 WNW 17 20 9 11 1008.6 1008.7 8.8
19/12:30am 8.3 2.3 5.1 80 1.4 W 26 37 14 20 1008.1 1008.2 8.8
19/12:00am 8.8 2.1 5.5 80 1.5 W 30 54 16 29 1007.9 1008.0 8.8
 
Date/Time
EST
Temp
°C
App
Temp
°C
Dew
Point
°C
Rel
Hum
%
Delta-T
°C
Wind Press
QNH
hPa
Press
MSL
hPa
Rain since
9am
mm
Dir  Spd
km/h
Gust
km/h
Spd
kts
Gust
kts
18/11:56pm 8.9 2.6 5.8 81 1.4 W 28 54 15 29 1008.0 1008.1 8.8
18/11:30pm 9.0 3.5 5.7 80 1.5 W 24 32 13 17 1007.5 1007.6 8.8
18/11:00pm 9.3 2.8 6.4 82 1.3 W 30 41 16 22 1007.0 1007.1 8.8
18/10:41pm 10.1 2.8 7.0 81 1.5 W 35 54 19 29 1006.4 1006.5 8.8
18/10:30pm 10.2 3.3 7.1 81 1.5 W 33 44 18 24 1006.0 1006.1 8.8
18/10:00pm 10.5 3.9 7.9 84 1.3 W 32 46 17 25 1005.5 1005.6 8.8
18/09:58pm 10.6 3.9 8.0 84 1.3 W 33 46 18 25 1005.5 1005.6 8.8
18/09:52pm 10.9 3.9 8.3 84 1.3 W 35 44 19 24 1005.4 1005.5 8.8
18/09:44pm 11.0 2.6 8.8 86 1.1 WNW 43 63 23 34 1005.2 1005.3 8.8
18/09:36pm 11.1 3.4 10.0 93 0.6 NW 41 63 22 34 1005.0 1005.1 8.8
18/09:30pm 11.5 4.3 10.4 93 0.6 NW 39 54 21 29 1004.8 1004.9 8.2
18/09:27pm 11.5 4.2 10.2 92 0.7 NNW 39 61 21 33 1004.8 1004.9 7.8
18/09:00pm 11.6 6.0 10.2 91 0.7 NNW 30 48 16 26 1005.2 1005.3 7.4
18/08:44pm 11.5 4.5 9.9 90 0.8 NNW 37 56 20 30 1005.6 1005.7 7.4
18/08:30pm 11.1 4.9 9.9 92 0.6 NNW 33 59 18 32 1005.9 1006.0 7.4
18/08:26pm 11.1 5.1 10.0 93 0.6 NNW 32 56 17 30 1005.7 1005.8 7.2
18/08:18pm 11.1 5.4 9.9 92 0.6 NW 30 44 16 24 1006.2 1006.3 7.0
18/08:10pm 11.0 4.7 9.8 92 0.6 NNW 33 54 18 29 1006.4 1006.5 6.4
18/08:05pm 10.8 5.4 9.6 92 0.6 NNW 28 48 15 26 1006.4 1006.5 6.4
18/08:00pm 10.6 5.6 9.5 93 0.6 NNW 26 44 14 24 1006.6 1006.7 6.2
18/07:30pm 10.3 5.6 9.1 92 0.6 NW 24 35 13 19 1007.4 1007.5 3.6
18/07:12pm 10.5 5.7 8.9 90 0.8 NW 24 33 13 18 1007.7 1007.8 2.0
18/07:00pm 10.6 6.1 8.7 88 0.9 NW 22 32 12 17 1007.8 1007.9 1.2
18/06:49pm 10.7 5.4 8.6 87 1.0 NW 26 35 14 19 1008.0 1008.1 0.8
18/06:39pm 10.8 5.2 8.6 86 1.1 NW 28 39 15 21 1008.1 1008.2 0.8
18/06:30pm 10.9 5.2 8.5 85 1.2 NW 28 43 15 23 1008.2 1008.3 0.8
18/06:00pm 11.2 5.6 8.8 85 1.2 NW 28 43 15 23 1008.2 1008.3 0.8
18/05:53pm 11.1 6.7 9.0 87 1.0 NW 22 28 12 15 1008.2 1008.3 0.8
18/05:48pm 10.9 6.5 8.8 87 1.0 NW 22 35 12 19 1008.3 1008.4 0.8
18/05:32pm 10.6 7.3 8.2 85 1.2 WNW 15 24 8 13 1008.5 1008.6 0.6
18/05:30pm 10.7 7.8 8.1 84 1.3 WNW 13 19 7 10 1008.5 1008.6 0.4
18/05:00pm 11.2 7.8 7.5 78 1.8 NW 15 19 8 10 1008.7 1008.8 0.2
18/04:30pm 11.2 7.4 7.5 78 1.8 NW 17 22 9 12 1009.5 1009.6 0.2
18/04:00pm 11.3 7.4 7.0 75 2.1 NW 17 24 9 13 1009.7 1009.8 0.2
18/03:30pm 11.4 8.2 6.9 74 2.1 NW 13 17 7 9 1009.8 1009.9 0.2
18/03:00pm 11.6 7.6 6.7 72 2.3 WNW 17 22 9 12 1010.4 1010.5 0.2
18/02:30pm 11.7 8.1 6.8 72 2.3 WNW 15 20 8 11 1010.6 1010.7 0.2
18/02:00pm 11.7 8.6 7.4 75 2.1 WNW 13 15 7 8 1010.8 1010.9 0.2
18/01:30pm 11.1 6.7 6.6 74 2.1 WNW 19 22 10 12 1010.9 1011.0 0.2
18/01:00pm 11.3 7.2 6.2 71 2.4 WNW 17 22 9 12 1011.5 1011.6 0.2
18/12:30pm 11.2 6.6 5.5 68 2.6 WNW 19 22 10 12 1012.1 1012.2 0.2
18/12:00pm 11.1 6.7 6.5 73 2.2 WNW 19 24 10 13 1012.2 1012.3 0.2
18/11:30am 10.4 9.3 6.7 78 1.7 SW 2 11 1 6 1012.5 1012.6 0.2
18/11:00am 9.5 8.7 6.4 81 1.4 CALM 0 0 0 0 1013.1 1013.2 0.0
18/10:30am 9.0 6.1 6.4 84 1.2 WNW 11 13 6 7 1013.2 1013.3 0.0
18/10:00am 8.3 5.3 6.1 86 1.0 WNW 11 13 6 7 1013.1 1013.2 0.0
18/09:30am 6.6 3.1 5.4 92 0.5 W 13 15 7 8 1012.8 1012.9 0.0
18/09:00am 6.1 2.9 4.9 92 0.5 WNW 11 15 6 8 1013.2 1013.3 5.6
18/08:30am 5.6 2.4 5.0 96 0.3 NW 11 13 6 7 1012.5 1012.6 5.6
18/08:00am 3.0 -0.7 2.3 95 0.3 W 11 13 6 7 1012.6 1012.7 5.6
18/07:30am 4.0 1.7 2.8 92 0.5 NW 4 11 2 6 1012.3 1012.4 5.6
18/07:00am 5.0 0.7 3.0 87 0.8 WNW 15 19 8 10 1011.7 1011.8 5.6
18/06:30am 6.0 2.9 3.8 86 0.9 NNW 9 13 5 7 1011.1 1011.2 5.6
18/06:00am 6.2 1.1 4.0 86 0.9 W 20 24 11 13 1010.5 1010.6 5.6
18/05:30am 6.1 1.9 3.9 86 0.9 NW 15 20 8 11 1010.6 1010.7 5.6
18/05:00am 6.0 0.1 3.8 86 0.9 WNW 24 30 13 16 1010.1 1010.2 5.6
18/04:30am 5.8 0.6 3.8 87 0.8 WNW 20 24 11 13 1010.5 1010.6 5.6
18/04:00am 5.1 0.1 3.6 90 0.6 WNW 19 22 10 12 1010.5 1010.6 5.6
18/03:30am 5.2 0.9 3.2 87 0.8 WNW 15 20 8 11 1010.6 1010.7 5.6
18/03:00am 5.5 1.6 3.3 86 0.9 WSW 13 19 7 10 1010.4 1010.5 5.6
18/02:30am 5.8 0.3 4.0 88 0.8 W 22 30 12 16 1009.9 1010.0 5.6
18/02:00am 5.2 0.6 3.5 89 0.7 W 17 22 9 12 1009.7 1009.8 5.6
18/01:30am 5.8 2.3 3.3 84 1.0 WSW 11 17 6 9 1009.4 1009.5 5.6
18/01:00am 6.8 1.4 4.3 84 1.1 WSW 22 32 12 17 1009.1 1009.2 5.6
18/12:30am 7.1 2.1 4.4 83 1.2 WSW 20 28 11 15 1008.9 1009.0 5.4
18/12:00am 7.4 1.2 4.4 81 1.3 WSW 26 41 14 22 1008.1 1008.2 5.4
 
Date/Time
EST
Temp
°C
App
Temp
°C
Dew
Point
°C
Rel
Hum
%
Delta-T
°C
Wind Press
QNH
hPa
Press
MSL
hPa
Rain since
9am
mm
Dir  Spd
km/h
Gust
km/h
Spd
kts
Gust
kts
17/11:30pm 7.8 1.4 5.1 83 1.2 WSW 28 43 15 23 1007.7 1007.8 5.2
17/11:19pm 7.8 1.4 5.3 84 1.1 WSW 28 46 15 25 1007.3 1007.4 5.2
17/11:00pm 8.0 3.2 5.8 86 1.0 WSW 20 32 11 17 1007.1 1007.2 5.0
17/10:30pm 7.9 2.8 5.9 87 0.9 W 22 30 12 16 1006.8 1006.9 4.6
17/10:00pm 7.9 1.9 5.4 84 1.1 WSW 26 37 14 20 1006.5 1006.6 4.4
17/09:30pm 7.7 2.8 5.3 85 1.1 WSW 20 32 11 17 1006.5 1006.6 4.4
17/09:00pm 7.4 2.6 5.4 87 0.9 WSW 20 26 11 14 1006.7 1006.8 4.4
17/08:30pm 7.8 3.6 5.6 86 1.0 WSW 17 24 9 13 1006.6 1006.7 4.2
17/08:00pm 8.0 2.4 5.6 85 1.1 WSW 24 37 13 20 1006.1 1006.2 4.2
17/07:30pm 8.1 2.8 5.2 82 1.3 W 22 33 12 18 1005.7 1005.8 4.2
17/07:00pm 8.4 3.7 6.0 85 1.1 WSW 20 32 11 17 1005.4 1005.5 4.2
17/06:30pm 8.3 2.4 5.9 85 1.1 W 26 39 14 21 1004.9 1005.0 4.2
17/06:28pm 8.4 2.5 5.9 84 1.1 W 26 39 14 21 1004.8 1004.9 4.2
17/06:12pm 8.8 2.7 6.8 87 0.9 WSW 28 39 15 21 1005.1 1005.2 3.8
17/06:00pm 9.2 3.0 6.3 82 1.3 W 28 39 15 21 1004.6 1004.7 3.4
17/05:55pm 9.2 2.9 5.9 80 1.5 W 28 46 15 25 1004.5 1004.6 3.2
17/05:30pm 9.1 2.8 5.8 80 1.5 W 28 37 15 20 1003.7 1003.8 3.2
17/05:00pm 9.2 3.0 6.3 82 1.3 W 28 39 15 21 1003.7 1003.8 3.2
17/04:50pm 9.5 3.0 6.4 81 1.4 WSW 30 41 16 22 1003.6 1003.7 3.2
17/04:38pm 9.6 2.2 6.9 83 1.3 WSW 35 54 19 29 1003.8 1003.9 3.2
17/04:37pm 9.6 2.2 6.9 83 1.3 WSW 35 54 19 29 1003.8 1003.9 3.2
17/04:30pm 10.2 2.7 6.5 78 1.7 W 35 44 19 24 1003.6 1003.7 3.2
17/04:00pm 10.4 2.9 6.5 77 1.8 W 35 50 19 27 1003.1 1003.2 3.2
17/03:39pm 10.6 2.4 6.7 77 1.8 W 39 57 21 31 1002.9 1003.0 3.2
17/03:30pm 10.5 1.9 6.6 77 1.8 W 41 57 22 31 1002.7 1002.8 3.2
17/03:04pm 11.1 4.2 7.2 77 1.9 W 33 54 18 29 1002.5 1002.6 3.2
17/03:00pm 11.0 3.7 7.1 77 1.9 W 35 46 19 25 1002.5 1002.6 3.2
17/02:40pm 10.6 3.8 7.8 83 1.4 W 33 44 18 24 1002.5 1002.6 3.2
17/02:30pm 9.8 2.9 7.4 85 1.1 W 33 50 18 27 1002.7 1002.8 3.2
17/02:28pm 9.9 3.1 7.5 85 1.1 W 33 50 18 27 1002.8 1002.9 3.2
17/02:15pm 10.2 3.7 8.0 86 1.1 W 32 41 17 22 1003.1 1003.2 2.6
17/02:07pm 9.9 2.7 7.8 87 1.0 WSW 35 54 19 29 1002.9 1003.0 2.6
17/02:00pm 9.9 2.2 7.3 84 1.2 W 37 54 20 29 1003.1 1003.2 2.6
17/01:57pm 10.0 3.2 7.1 82 1.4 W 32 54 17 29 1003.1 1003.2 2.6
17/01:55pm 10.4 4.5 7.5 82 1.4 W 28 52 15 28 1003.1 1003.2 2.4
17/01:30pm 11.7 7.0 9.3 85 1.2 W 24 35 13 19 1003.1 1003.2 2.0
17/01:14pm 10.7 4.2 8.1 84 1.3 W 32 46 17 25 1003.4 1003.5 2.0
17/01:12pm 10.6 3.9 8.0 84 1.3 W 33 52 18 28 1003.5 1003.6 2.0
17/01:02pm 10.6 1.5 8.5 87 1.0 WNW 46 70 25 38 1003.7 1003.8 2.0
17/01:00pm 10.6 1.5 8.5 87 1.0 WNW 46 70 25 38 1003.5 1003.6 2.0
17/12:55pm 10.8 4.0 9.1 89 0.8 NW 35 54 19 29 1003.3 1003.4 1.8
17/12:53pm 10.8 4.3 8.9 88 0.9 WNW 33 54 18 29 1003.3 1003.4 1.6
17/12:30pm 11.3 6.3 9.4 88 1.0 WNW 26 37 14 20 1004.0 1004.1 0.8
17/12:03pm 11.5 5.1 9.2 86 1.2 WNW 33 46 18 25 1004.9 1005.0 0.4
17/12:00pm 11.6 4.8 9.3 86 1.2 WNW 35 50 19 27 1005.0 1005.1 0.4
17/11:48am 11.4 4.9 9.0 85 1.2 WNW 33 46 18 25 1005.2 1005.3 0.2
17/11:30am 12.3 5.8 9.0 80 1.7 WNW 33 54 18 29 1005.8 1005.9 0.0
17/11:25am 12.4 6.0 8.7 78 1.8 WNW 32 50 17 27 1005.8 1005.9 0.0
17/11:00am 11.8 5.2 8.6 81 1.6 WNW 33 48 18 26 1006.6 1006.7 0.0
17/10:30am 11.8 6.3 9.0 83 1.4 WNW 28 39 15 21 1007.4 1007.5 0.0
17/10:00am 11.7 5.7 8.6 81 1.5 WNW 30 39 16 21 1007.8 1007.9 0.0
17/09:30am 11.5 6.2 8.5 82 1.5 WNW 26 33 14 18 1008.3 1008.4 0.0
17/09:00am 11.0 6.1 8.4 84 1.3 WNW 24 33 13 18 1008.7 1008.8 1.0
17/08:30am 10.4 5.8 8.3 87 1.0 WNW 22 28 12 15 1008.8 1008.9 1.0
17/08:03am 9.7 5.1 8.1 90 0.8 WNW 22 28 12 15 1009.1 1009.2 1.0
17/08:00am 9.7 5.1 8.1 90 0.8 WNW 22 28 12 15 1009.2 1009.3 1.0
17/07:45am 9.7 5.5 8.1 90 0.8 WNW 20 28 11 15 1009.4 1009.5 1.0
17/07:30am 9.7 5.1 8.0 89 0.8 WNW 22 30 12 16 1009.5 1009.6 1.0
17/07:00am 9.7 5.3 7.6 87 1.0 WNW 20 30 11 16 1009.7 1009.8 1.0
17/06:30am 9.6 5.2 7.4 86 1.0 WNW 20 30 11 16 1009.8 1009.9 1.0
17/06:00am 9.4 5.2 7.3 87 1.0 WNW 19 26 10 14 1010.1 1010.2 1.0
17/05:30am 9.5 5.1 7.3 86 1.0 WNW 20 28 11 15 1010.3 1010.4 1.0
17/05:00am 9.6 4.1 7.4 86 1.0 W 26 37 14 20 1010.8 1010.9 1.0
17/04:30am 9.5 4.0 7.6 88 0.9 WNW 26 33 14 18 1010.9 1011.0 1.0
17/04:00am 9.1 5.0 7.9 92 0.6 WNW 19 22 10 12 1011.7 1011.8 1.0
17/03:30am 9.1 5.8 7.9 92 0.6 NW 15 19 8 10 1012.0 1012.1 1.0
17/03:00am 8.8 6.6 7.7 93 0.5 NW 9 17 5 9 1012.5 1012.6 1.0
17/02:30am 8.6 6.4 7.8 95 0.4 WNW 9 13 5 7 1013.0 1013.1 1.0
17/02:26am 8.3 5.6 7.4 94 0.4 WNW 11 13 6 7 1013.1 1013.2 1.0
17/02:23am 8.1 5.4 7.2 94 0.4 WNW 11 13 6 7 1013.1 1013.2 1.0
17/02:00am 9.1 5.8 8.2 94 0.4 WNW 15 19 8 10 1013.2 1013.3 0.8
17/01:49am 9.2 6.3 8.1 93 0.5 WNW 13 19 7 10 1013.3 1013.4 0.8
17/01:44am 9.2 5.9 8.0 92 0.6 WNW 15 20 8 11 1013.2 1013.3 0.8
17/01:39am 9.1 5.4 7.9 92 0.6 WNW 17 20 9 11 1013.3 1013.4 0.8
17/01:30am 9.1 5.4 8.0 93 0.5 WNW 17 20 9 11 1013.5 1013.6 0.8
17/01:29am 9.1 5.4 8.0 93 0.5 WNW 17 20 9 11 1013.5 1013.6 0.8
17/01:00am 9.3 6.2 8.7 96 0.3 WNW 15 22 8 12 1013.7 1013.8 0.4
17/12:42am 9.4 5.9 8.6 95 0.4 WNW 17 20 9 11 1014.0 1014.1 0.2
17/12:31am 9.5 5.6 8.6 94 0.4 NW 19 24 10 13 1014.0 1014.1 0.0
17/12:30am 9.5 5.6 8.6 94 0.4 NW 19 24 10 13 1014.0 1014.1 0.0
17/12:19am 9.5 5.5 8.4 93 0.5 NW 19 22 10 12 1014.1 1014.2 0.0
17/12:00am 9.4 6.1 8.2 92 0.6 NW 15 20 8 11 1014.2 1014.3 0.0
 
Date/Time
EST
Temp
°C
App
Temp
°C
Dew
Point
°C
Rel
Hum
%
Delta-T
°C
Wind Press
QNH
hPa
Press
MSL
hPa
Rain since
9am
mm
Dir  Spd
km/h
Gust
km/h
Spd
kts
Gust
kts
16/11:48pm 9.6 6.8 8.4 92 0.6 NW 13 17 7 9 1014.5 1014.6 0.0
16/11:30pm 9.7 6.1 8.3 91 0.7 NW 17 20 9 11 1014.6 1014.7 0.0
16/11:00pm 9.9 5.9 8.3 90 0.8 WNW 19 26 10 14 1014.7 1014.8 0.0
16/10:30pm 10.0 6.5 8.6 91 0.7 W 17 22 9 12 1014.8 1014.9 0.0
16/10:18pm 10.0 6.9 8.8 92 0.6 WNW 15 20 8 11 1014.7 1014.8 0.0
16/10:07pm 10.2 7.0 8.6 90 0.8 WNW 15 22 8 12 1014.8 1014.9 0.0
16/10:00pm 10.4 6.5 8.7 89 0.8 WNW 19 28 10 15 1014.9 1015.0 0.0
16/09:30pm 10.0 6.8 8.6 91 0.7 NW 15 20 8 11 1014.8 1014.9 0.0
16/09:25pm 10.0 7.2 8.6 91 0.7 WNW 13 19 7 10 1014.7 1014.8 0.0
16/09:06pm 10.4 6.6 9.0 91 0.7 WNW 19 26 10 14 1015.0 1015.1 0.0
16/09:00pm 10.4 6.9 8.8 90 0.8 W 17 20 9 11 1015.0 1015.1 0.0
16/08:45pm 10.6 6.1 8.7 88 0.9 WNW 22 32 12 17 1015.0 1015.1 0.0
16/08:30pm 10.9 6.0 8.3 84 1.3 W 24 32 13 17 1015.0 1015.1 0.0
16/08:00pm 11.0 6.4 8.1 82 1.4 W 22 32 12 17 1014.8 1014.9 0.0
16/07:30pm 11.1 6.9 8.1 82 1.5 WNW 20 37 11 20 1014.7 1014.8 0.0
16/07:00pm 10.8 6.3 8.4 85 1.2 WNW 22 28 12 15 1014.7 1014.8 0.0
16/06:30pm 10.5 6.5 8.3 86 1.1 WNW 19 28 10 15 1014.4 1014.5 0.0
16/06:00pm 10.7 5.3 8.1 84 1.3 W 26 39 14 21 1014.2 1014.3 0.0
16/05:30pm 10.4 6.6 7.6 83 1.3 WNW 17 22 9 12 1014.2 1014.3 0.0
16/05:00pm 11.1 6.0 7.8 80 1.6 W 24 35 13 19 1014.0 1014.1 0.0
16/04:30pm 12.0 7.8 8.1 77 1.9 WNW 20 26 11 14 1013.7 1013.8 0.0
16/04:00pm 12.0 7.8 8.3 78 1.8 W 20 28 11 15 1013.6 1013.7 0.0
16/03:30pm 12.3 8.2 8.8 79 1.7 W 20 28 11 15 1013.4 1013.5 0.0
16/03:00pm 13.1 7.7 8.2 72 2.4 W 26 37 14 20 1013.3 1013.4 0.0
16/02:30pm 13.7 7.2 8.1 69 2.8 WSW 32 41 17 22 1012.9 1013.0 0.0
16/02:00pm 13.4 8.6 8.7 73 2.4 W 24 35 13 19 1012.8 1012.9 0.0
16/01:30pm 13.4 8.8 8.3 71 2.5 W 22 35 12 19 1013.0 1013.1 0.0
16/01:00pm 13.3 7.7 8.6 73 2.4 W 28 43 15 23 1013.1 1013.2 0.0
16/12:30pm 13.6 9.1 8.7 72 2.5 W 22 33 12 18 1013.3 1013.4 0.0
16/12:00pm 13.3 8.1 8.8 74 2.3 W 26 39 14 21 1013.6 1013.7 0.0
16/11:30am 13.6 8.9 9.1 74 2.3 W 24 39 13 21 1013.8 1013.9 0.0
16/11:00am 12.4 6.8 8.7 78 1.8 WSW 28 43 15 23 1013.8 1013.9 0.0
16/10:30am 12.9 7.4 9.0 77 2.0 W 28 44 15 24 1013.6 1013.7 0.0
16/10:28am 12.9 7.1 9.4 79 1.8 W 30 48 16 26 1013.6 1013.7 0.0
16/10:00am 13.0 6.7 9.1 77 2.0 W 32 41 17 22 1013.2 1013.3 0.0
16/09:46am 12.4 5.4 8.5 77 1.9 W 35 54 19 29 1013.0 1013.1 0.0
16/09:30am 12.4 4.7 8.5 77 1.9 W 39 52 21 28 1013.0 1013.1 0.0
16/09:00am 12.1 5.1 8.6 79 1.7 W 35 48 19 26 1013.1 1013.2 0.0
16/08:30am 11.8 6.9 8.3 79 1.7 W 24 32 13 17 1012.9 1013.0 0.0
16/08:00am 11.5 6.1 8.0 79 1.7 W 26 43 14 23 1012.7 1012.8 0.0
16/07:30am 11.4 5.2 7.9 79 1.7 W 30 43 16 23 1012.3 1012.4 0.0
16/07:00am 11.1 4.6 8.0 81 1.5 W 32 43 17 23 1012.1 1012.2 0.0
16/06:30am 10.8 4.2 7.9 82 1.4 W 32 46 17 25 1012.1 1012.2 0.0
16/06:00am 10.4 4.6 7.8 84 1.3 WNW 28 37 15 20 1012.2 1012.3 0.0
16/05:30am 10.0 4.1 7.4 84 1.2 WNW 28 41 15 22 1011.9 1012.0 0.0
16/05:00am 9.8 3.8 7.1 83 1.3 W 28 35 15 19 1012.0 1012.1 0.0
16/04:30am 9.4 2.4 6.7 83 1.3 W 33 44 18 24 1012.0 1012.1 0.0
16/04:00am 9.2 2.7 6.3 82 1.3 W 30 39 16 21 1012.3 1012.4 0.0
16/03:30am 9.2 2.2 6.1 81 1.4 W 32 48 17 26 1012.5 1012.6 0.0
16/03:01am 9.4 2.5 6.3 81 1.4 WSW 32 50 17 27 1012.5 1012.6 0.0
16/03:00am 9.2 2.3 6.3 82 1.3 W 32 46 17 25 1012.5 1012.6 0.0
16/02:30am 9.3 1.8 6.2 81 1.4 WSW 35 50 19 27 1012.8 1012.9 0.0
16/02:00am 9.8 2.3 6.5 80 1.5 W 35 56 19 30 1012.7 1012.8 0.0
16/01:34am 9.7 2.9 7.1 84 1.2 W 32 50 17 27 1012.8 1012.9 0.0
16/01:30am 9.9 2.6 7.3 84 1.2 W 35 50 19 27 1012.8 1012.9 0.0

Other formats

Comma delimited format used in spreadsheet applications
http://www.bom.gov.au/fwo/IDT60801/IDT60801.95957.axf

JavaScript Object Notation format (JSON) in row-major order
http://www.bom.gov.au/fwo/IDT60801/IDT60801.95957.json

Data quality

Most of these data are generated automatically and are frequently updated. Quality checks on data are not normally performed. It is possible for incorrect values to appear. Refer to information at About Latest Weather Observations and please check the disclaimer before using these data.